createdAt,value
2023-05-21T00:02:56.666Z,40.4
2023-05-21T00:07:57.257Z,40.4
2023-05-21T00:12:57.771Z,40.3
2023-05-21T00:17:58.383Z,40.3
2023-05-21T00:22:58.928Z,40.2
2023-05-21T00:27:59.442Z,40.2
2023-05-21T00:32:59.968Z,40.2
2023-05-21T00:38:00.468Z,40.2
2023-05-21T00:43:00.965Z,40.1
2023-05-21T00:48:01.470Z,40.1
2023-05-21T00:53:02.069Z,40.1
2023-05-21T00:58:02.575Z,40
2023-05-21T01:03:03.140Z,40
2023-05-21T01:08:03.828Z,39.9
2023-05-21T01:13:04.299Z,39.9
2023-05-21T01:18:04.769Z,39.9
2023-05-21T01:23:05.242Z,39.8
2023-05-21T01:28:05.786Z,39.8
2023-05-21T01:33:06.295Z,39.7
2023-05-21T01:38:06.897Z,39.7
2023-05-21T01:43:07.375Z,39.7
2023-05-21T01:48:07.925Z,39.7
2023-05-21T01:53:08.455Z,39.6
2023-05-21T01:58:09.070Z,39.6
2023-05-21T02:03:09.612Z,39.6
2023-05-21T02:08:10.237Z,39.5
2023-05-21T02:13:10.711Z,39.5
2023-05-21T02:18:11.186Z,39.5
2023-05-21T02:23:11.795Z,39.4
2023-05-21T02:28:12.269Z,39.4
2023-05-21T02:33:12.717Z,39.4
2023-05-21T02:38:13.216Z,39.3
2023-05-21T02:43:16.003Z,39.3
2023-05-21T02:48:16.656Z,39.2
2023-05-21T02:53:17.154Z,39.2
2023-05-21T02:58:17.795Z,39.2
2023-05-21T03:03:18.375Z,39.1
2023-05-21T03:08:18.965Z,39.1
2023-05-21T03:13:19.510Z,39.1
2023-05-21T03:18:20.041Z,39.1
2023-05-21T03:23:20.548Z,39
2023-05-21T03:28:21.072Z,39
2023-05-21T03:33:21.627Z,38.9
2023-05-21T03:38:22.121Z,38.9
2023-05-21T03:43:22.566Z,38.9
2023-05-21T03:48:23.012Z,38.9
2023-05-21T03:53:24.366Z,38.8
2023-05-21T03:58:25.779Z,38.8
2023-05-21T04:03:26.417Z,38.7
2023-05-21T04:08:27.038Z,38.7
2023-05-21T04:13:27.518Z,38.7
2023-05-21T04:18:27.976Z,38.7
2023-05-21T04:23:28.451Z,38.6
2023-05-21T04:28:28.998Z,38.6
2023-05-21T04:33:29.569Z,38.6
2023-05-21T04:38:30.055Z,38.6
2023-05-21T04:43:30.537Z,38.5
2023-05-21T04:48:31.021Z,38.5
2023-05-21T04:53:31.508Z,38.4
2023-05-21T04:58:31.966Z,38.4
2023-05-21T05:03:32.468Z,38.4
2023-05-21T05:08:33.083Z,38.4
2023-05-21T05:13:33.547Z,38.3
2023-05-21T05:18:33.998Z,38.2
2023-05-21T05:23:34.467Z,38.2
2023-05-21T05:28:34.950Z,38.2
2023-05-21T05:33:35.432Z,38.2
2023-05-21T05:38:35.879Z,38.2
2023-05-21T05:43:36.362Z,38.1
2023-05-21T05:48:36.809Z,38.1
2023-05-21T05:53:37.255Z,38.1
2023-05-21T05:58:37.717Z,38
2023-05-21T06:03:38.273Z,38
2023-05-21T06:08:38.891Z,38
2023-05-21T06:13:39.358Z,37.9
2023-05-21T06:18:39.785Z,37.9
2023-05-21T06:23:40.281Z,37.9
2023-05-21T06:28:40.710Z,37.9
2023-05-21T06:33:41.375Z,37.8
2023-05-21T06:38:41.946Z,37.7
2023-05-21T06:43:42.402Z,37.7
2023-05-21T06:48:42.806Z,37.7
2023-05-21T06:53:43.349Z,37.7
2023-05-21T06:58:44.603Z,37.7
2023-05-21T07:03:45.075Z,37.6
2023-05-21T07:08:46.068Z,37.6
2023-05-21T07:13:46.488Z,37.6
2023-05-21T07:18:46.978Z,37.6
2023-05-21T07:23:47.457Z,37.4
2023-05-21T07:28:47.913Z,37.3
2023-05-21T07:33:48.355Z,37.2
2023-05-21T07:38:48.933Z,37.2
2023-05-21T07:43:49.463Z,37.2
2023-05-21T07:48:50.053Z,37.2
2023-05-21T07:53:50.607Z,37.1
2023-05-21T07:58:51.116Z,37.1
2023-05-21T08:03:51.816Z,37.1
2023-05-21T08:08:52.347Z,37.1
2023-05-21T08:13:52.719Z,37
2023-05-21T08:18:53.190Z,37
2023-05-21T08:23:53.691Z,36.9
2023-05-21T08:28:54.076Z,36.9
2023-05-21T08:33:54.707Z,36.9
2023-05-21T08:38:55.387Z,36.9
2023-05-21T08:43:55.935Z,36.9
2023-05-21T08:48:56.395Z,36.8
2023-05-21T08:53:57.013Z,36.8
2023-05-21T08:58:57.500Z,36.7
2023-05-21T09:04:01.915Z,36.7
2023-05-21T09:09:05.510Z,36.7
2023-05-21T09:14:05.944Z,36.7
2023-05-21T09:19:06.356Z,36.7
2023-05-21T09:24:06.750Z,36.6
2023-05-21T09:29:07.192Z,36.6
2023-05-21T09:34:07.885Z,36.6
2023-05-21T09:39:08.529Z,36.6
2023-05-21T09:44:08.912Z,36.5
2023-05-21T09:49:09.313Z,36.5
2023-05-21T09:54:09.740Z,36.5
2023-05-21T09:59:10.128Z,36.4
2023-05-21T10:04:10.519Z,36.4
2023-05-21T10:09:11.044Z,36.4
2023-05-21T10:14:11.666Z,36.4
2023-05-21T10:19:12.048Z,36.4
2023-05-21T10:24:12.501Z,36.3
2023-05-21T10:29:13.163Z,36.3
2023-05-21T10:34:13.705Z,36.2
2023-05-21T10:39:16.839Z,36.2
2023-05-21T10:44:17.221Z,36.1
2023-05-21T10:49:17.664Z,36
2023-05-21T10:54:18.129Z,35.9
2023-05-21T10:59:18.529Z,35.9
2023-05-21T11:04:19.069Z,35.9
2023-05-21T11:09:19.507Z,35.8
2023-05-21T11:14:20.854Z,35.8
2023-05-21T11:19:21.313Z,35.8
2023-05-21T11:24:21.726Z,35.7
2023-05-21T11:29:22.268Z,35.7
2023-05-21T11:34:22.788Z,35.7
2023-05-21T11:39:23.164Z,35.7
2023-05-21T11:44:23.529Z,35.7
2023-05-21T11:49:23.877Z,35.6
2023-05-21T11:54:24.266Z,35.6
2023-05-21T11:59:24.747Z,35.6
2023-05-21T12:04:25.317Z,35.6
2023-05-21T12:09:25.841Z,35.6
2023-05-21T12:14:26.270Z,35.5
2023-05-21T12:19:26.820Z,35.5
2023-05-21T12:24:27.229Z,35.5
2023-05-21T12:29:27.629Z,35.4
2023-05-21T12:34:28.187Z,35.4
2023-05-21T12:39:28.565Z,35.4
2023-05-21T12:44:28.954Z,35.4
2023-05-21T12:49:29.330Z,34.9
2023-05-21T12:54:30.125Z,34.7
2023-05-21T12:59:33.640Z,34.6
2023-05-21T13:04:34.005Z,34.6
2023-05-21T13:09:34.493Z,34.6
2023-05-21T13:14:34.786Z,34.4
2023-05-21T13:19:35.547Z,34.4
2023-05-21T13:24:36.013Z,34.4
2023-05-21T13:29:36.385Z,34.4
2023-05-21T13:34:36.765Z,34.4
2023-05-21T13:39:37.149Z,34.3
2023-05-21T13:44:37.473Z,34.3
2023-05-21T13:49:37.823Z,34.3
2023-05-21T13:54:38.146Z,34.2
2023-05-21T13:59:38.598Z,34.5
2023-05-21T14:04:39.533Z,36.7
2023-05-21T14:09:40.299Z,39.2
2023-05-21T14:14:40.861Z,41.3
2023-05-21T14:19:41.365Z,41.6
2023-05-21T14:24:41.874Z,41.9
2023-05-21T14:29:42.462Z,42.7
2023-05-21T14:34:43.102Z,42.7
2023-05-21T14:39:43.662Z,42.7
2023-05-21T14:44:44.222Z,42.7
2023-05-21T14:49:44.787Z,42.7
2023-05-21T14:54:45.345Z,42.6
2023-05-21T14:59:45.934Z,42.7
2023-05-21T15:04:46.607Z,43.5
2023-05-21T15:09:47.355Z,43.9
2023-05-21T15:14:48.035Z,44.6
2023-05-21T15:19:48.912Z,44.9
2023-05-21T15:24:49.685Z,45.9
2023-05-21T15:29:50.350Z,47.2
2023-05-21T15:34:51.129Z,47.9
2023-05-21T15:39:52.058Z,48.4
2023-05-21T15:44:53.085Z,49
2023-05-21T15:49:54.305Z,49.6
2023-05-21T15:54:55.126Z,49.4
2023-05-21T15:59:55.913Z,49.2
2023-05-21T16:04:56.666Z,49.2
2023-05-21T16:09:57.480Z,49.1
2023-05-21T16:14:58.231Z,49.1
2023-05-21T16:19:59.055Z,49.1
2023-05-21T16:24:59.824Z,49
2023-05-21T16:30:01.073Z,49
2023-05-21T16:35:01.894Z,48.9
2023-05-21T16:40:02.732Z,48.9
2023-05-21T16:45:03.537Z,48.9
2023-05-21T16:50:04.326Z,48.8
2023-05-21T16:55:05.173Z,48.8
2023-05-21T17:00:06.328Z,48.7
2023-05-21T17:05:07.122Z,48.7
2023-05-21T17:10:08.058Z,48.6
2023-05-21T17:15:09.136Z,48.6
2023-05-21T17:20:09.880Z,48.5
2023-05-21T17:25:10.848Z,48.4
2023-05-21T17:30:11.611Z,48.4
2023-05-21T17:35:12.332Z,48.4
2023-05-21T17:40:13.316Z,48.3
2023-05-21T17:45:14.094Z,48.3
2023-05-21T17:50:14.997Z,46.9
2023-05-21T17:55:15.654Z,42.1
2023-05-21T18:00:16.270Z,36.2
2023-05-21T18:05:16.581Z,27.3
2023-05-21T18:10:18.375Z,22.9
2023-05-21T18:15:20.180Z,22.4
2023-05-21T18:20:21.909Z,22.4
2023-05-21T18:25:23.570Z,22.6
2023-05-21T18:30:25.486Z,22.7
2023-05-21T18:35:27.212Z,22.8
2023-05-21T18:40:30.671Z,22.9
2023-05-21T18:45:32.914Z,23
2023-05-21T18:50:34.831Z,23.1
2023-05-21T18:55:36.644Z,23.2
2023-05-21T19:00:38.788Z,23.3
2023-05-21T19:05:40.801Z,23.4
2023-05-21T19:10:42.614Z,23.4
2023-05-21T19:15:44.360Z,23.5
2023-05-21T19:20:46.059Z,23.6
2023-05-21T19:25:47.965Z,23.7
2023-05-21T19:30:49.666Z,23.6
2023-05-21T19:35:51.344Z,22.7
2023-05-21T19:40:53.156Z,22.5
2023-05-21T19:45:55.252Z,22.5
2023-05-21T19:50:56.959Z,22.6
2023-05-21T19:55:58.610Z,22.7
2023-05-21T20:01:00.382Z,22.7
2023-05-21T20:06:02.183Z,22.8
2023-05-21T20:11:03.985Z,22.9
2023-05-21T20:16:05.651Z,22.9
2023-05-21T20:21:07.418Z,22.9
2023-05-21T20:26:09.089Z,22.9
2023-05-21T20:31:10.783Z,23
2023-05-21T20:36:15.515Z,23.1
2023-05-21T20:41:17.204Z,23.1
2023-05-21T20:46:18.950Z,23.2
2023-05-21T20:51:20.832Z,23.3
2023-05-21T20:56:33.940Z,23.3
2023-05-21T21:01:42.662Z,23.3
2023-05-21T21:06:44.439Z,23.4
2023-05-21T21:11:46.174Z,23.4
2023-05-21T21:16:47.881Z,23.5
2023-05-21T21:21:49.615Z,23.5
2023-05-21T21:26:51.303Z,23.6
2023-05-21T21:31:52.976Z,23.6
2023-05-21T21:36:54.656Z,23.6
2023-05-21T21:41:56.351Z,23.7
2023-05-21T21:46:58.054Z,23.7
2023-05-21T21:51:59.898Z,23.8
2023-05-21T21:57:01.610Z,23.8
2023-05-21T22:02:03.286Z,23.9
2023-05-21T22:07:04.990Z,23.9
2023-05-21T22:12:06.670Z,23.9
2023-05-21T22:17:08.453Z,24
2023-05-21T22:22:10.384Z,24
2023-05-21T22:27:12.046Z,24.1
2023-05-21T22:32:13.860Z,24.1
2023-05-21T22:37:15.542Z,24.1
2023-05-21T22:42:17.186Z,24.2
2023-05-21T22:47:18.884Z,24.2
2023-05-21T22:52:20.585Z,24.2
2023-05-21T22:57:22.288Z,24.3
2023-05-21T23:02:24.024Z,24.3
2023-05-21T23:07:25.764Z,24.3
2023-05-21T23:12:27.615Z,24.3
2023-05-21T23:17:29.346Z,24.4
2023-05-21T23:22:31.197Z,24.4
2023-05-21T23:27:32.863Z,24.4
2023-05-21T23:32:34.581Z,24.4
2023-05-21T23:37:36.497Z,24.3
2023-05-21T23:42:38.161Z,22.8
2023-05-21T23:47:39.914Z,22.5
2023-05-21T23:52:41.695Z,22.5
2023-05-21T23:57:43.425Z,22.5
